Time;durP1;ratioP1;P1;durP2;ratioP2;P2;SDS_P1;SDS_P2;PMS_P1;PMS_P2;Temp;Humidity;BMP_temperature;BMP_pressure;BME280_temperature;BME280_humidity;BME280_pressure;Samples;Min_cycle;Max_cycle;Signal;HPM_P1;HPM_P2
2023/05/18 00:04:17;;;;;;;12.35;7.30;;;;;;;9.97;88.18;100110.03;10418847;28;20041;-67
2023/05/18 00:09:18;;;;;;;10.63;7.05;;;;;;;9.91;88.44;100112.53;10418525;28;20033;-66
2023/05/18 00:14:20;;;;;;;11.52;7.07;;;;;;;9.88;89.00;100110.22;10416428;28;20075;-66
2023/05/18 00:19:22;;;;;;;15.15;6.38;;;;;;;9.70;88.40;100102.47;10416842;28;20044;-67
2023/05/18 00:24:23;;;;;;;12.63;6.57;;;;;;;9.20;88.02;100035.38;10416745;28;20562;-67
2023/05/18 00:29:24;;;;;;;7.40;6.28;;;;;;;8.99;88.20;100009.38;10417692;28;20038;-67
2023/05/18 00:34:25;;;;;;;14.55;6.97;;;;;;;8.95;88.14;100007.25;10417509;28;20390;-66
2023/05/18 00:39:26;;;;;;;10.10;6.78;;;;;;;9.46;88.09;100090.88;10416836;28;20041;-67
2023/05/18 00:44:26;;;;;;;16.38;6.93;;;;;;;9.30;88.31;100088.22;10416654;28;20033;-66
2023/05/18 00:49:27;;;;;;;9.63;5.80;;;;;;;8.40;88.25;99929.25;10416667;28;20399;-67
2023/05/18 00:54:28;;;;;;;11.00;7.03;;;;;;;8.74;88.44;100020.97;10417542;28;20037;-67
2023/05/18 00:59:31;;;;;;;20.95;7.55;;;;;;;8.66;89.46;100014.66;10416642;28;20137;-66
2023/05/18 01:04:32;;;;;;;11.52;6.82;;;;;;;8.91;89.64;100049.13;10417146;28;20083;-67
2023/05/18 01:09:33;;;;;;;12.80;7.35;;;;;;;9.23;89.86;100100.47;10415868;28;20037;-67
2023/05/18 01:15:02;;;;;;;9.85;6.90;;;;;;;9.27;92.59;100118.56;10417271;28;20560;-67
2023/05/18 01:20:06;;;;;;;12.85;6.72;;;;;;;9.18;91.34;100129.28;10416046;28;20156;-66
2023/05/18 01:25:20;;;;;;;10.93;7.13;;;;;;;9.08;93.54;100109.09;10425829;28;20057;-67
2023/05/18 01:30:21;;;;;;;;;;;;;;;9.29;93.16;100126.34;10415660;28;20046;-67
2023/05/18 01:35:21;;;;;;;27.65;7.70;;;;;;;9.09;90.30;100118.72;10415865;28;19967;-67
2023/05/18 01:40:24;;;;;;;20.13;7.63;;;;;;;9.06;89.99;100123.47;10414378;28;20561;-67
2023/05/18 01:45:28;;;;;;;29.10;7.78;;;;;;;9.07;91.22;100120.69;10414946;28;20041;-67
2023/05/18 01:50:36;;;;;;;15.32;6.70;;;;;;;9.21;91.32;100131.63;10414770;28;20041;-67
2023/05/18 01:55:39;;;;;;;32.42;7.45;;;;;;;9.24;90.10;100132.09;10414733;28;20037;-67
2023/05/18 02:00:40;;;;;;;14.52;7.22;;;;;;;9.19;89.64;100107.13;10423599;28;20043;-66
2023/05/18 02:05:41;;;;;;;21.35;7.15;;;;;;;8.87;89.71;100042.50;10413607;28;20045;-67
2023/05/18 02:10:42;;;;;;;19.00;7.30;;;;;;;9.72;89.64;100137.59;10412448;28;20862;-66
2023/05/18 02:15:43;;;;;;;49.55;9.57;;;;;;;9.84;89.58;100136.22;10413318;28;20037;-67
2023/05/18 02:20:47;;;;;;;20.50;7.50;;;;;;;10.11;89.81;100137.69;10413401;28;20041;-66
2023/05/18 02:25:48;;;;;;;14.75;6.72;;;;;;;10.57;89.44;100131.75;10412077;28;20064;-67
2023/05/18 02:30:49;;;;;;;11.18;6.63;;;;;;;10.91;88.57;100112.78;10416817;28;20045;-67
2023/05/18 02:35:52;;;;;;;14.20;6.40;;;;;;;11.56;87.09;100130.09;10440580;28;20098;-67
2023/05/18 02:40:52;;;;;;;19.98;6.90;;;;;;;12.39;85.16;100123.78;10454775;28;20083;-67
2023/05/18 02:45:53;;;;;;;22.73;6.70;;;;;;;13.11;83.25;100146.97;10422784;28;20049;-67
2023/05/18 02:50:54;;;;;;;8.70;6.15;;;;;;;13.77;80.53;100159.31;10410450;28;20037;-67
2023/05/18 02:55:57;;;;;;;20.00;6.65;;;;;;;14.45;77.66;100157.72;10423230;28;20084;-67
2023/05/18 03:00:59;;;;;;;13.85;5.63;;;;;;;15.32;75.27;100160.72;10412508;28;20037;-67
2023/05/18 03:06:03;;;;;;;15.25;6.70;;;;;;;15.28;73.28;100082.66;10413023;28;20042;-67
2023/05/18 03:11:03;;;;;;;;;;;;;;;17.35;70.05;100169.56;10412513;28;20081;-67
2023/05/18 03:16:04;;;;;;;10.70;5.60;;;;;;;17.06;68.86;100106.56;10412381;28;19917;-67
2023/05/18 03:21:06;;;;;;;11.05;6.18;;;;;;;17.64;65.99;100151.16;10412441;28;20086;-67
2023/05/18 03:26:10;;;;;;;13.07;6.65;;;;;;;17.83;64.07;100115.28;10412248;28;20057;-67
2023/05/18 03:31:11;;;;;;;10.23;6.50;;;;;;;18.76;62.27;100175.34;10412126;28;20037;-67
2023/05/18 03:36:11;;;;;;;13.70;6.53;;;;;;;19.07;60.06;100158.97;10412125;28;20045;-67
2023/05/18 03:41:13;;;;;;;17.27;7.25;;;;;;;19.64;58.67;100169.31;10411405;28;20049;-67
2023/05/18 03:46:13;;;;;;;43.83;8.10;;;;;;;19.68;57.42;100113.91;10414345;28;20045;-67
2023/05/18 03:51:14;;;;;;;11.20;6.00;;;;;;;20.26;56.14;100172.44;10419073;28;20045;-67
2023/05/18 03:56:15;;;;;;;9.60;6.13;;;;;;;20.49;55.18;100176.97;10418521;28;20037;-67
2023/05/18 04:01:17;;;;;;;10.27;5.93;;;;;;;21.19;53.50;100167.84;10418161;28;20052;-67
2023/05/18 04:06:21;;;;;;;7.40;5.13;;;;;;;21.51;52.16;100178.19;10415291;28;20136;-66
2023/05/18 04:11:22;;;;;;;10.20;5.72;;;;;;;21.68;51.56;100180.06;10418840;28;20057;-65
2023/05/18 04:16:23;;;;;;;9.10;5.22;;;;;;;21.62;50.75;100134.03;10414808;28;20045;-66
2023/05/18 04:21:24;;;;;;;11.98;6.13;;;;;;;21.85;50.43;100180.88;10419917;28;20041;-66
2023/05/18 04:26:24;;;;;;;14.63;5.75;;;;;;;21.79;50.83;100127.81;10426762;28;20061;-64
2023/05/18 04:31:26;;;;;;;15.02;6.25;;;;;;;22.46;50.55;100184.50;10417795;28;20041;-67
2023/05/18 04:36:29;;;;;;;18.95;6.03;;;;;;;22.57;49.60;100185.47;10416160;28;20045;-66
2023/05/18 04:41:32;;;;;;;12.10;5.85;;;;;;;22.88;48.68;100193.97;10427471;28;20037;-66
2023/05/18 04:46:36;;;;;;;9.68;6.65;;;;;;;22.77;47.50;100184.91;10415208;28;20065;-66
2023/05/18 04:51:38;;;;;;;15.88;8.00;;;;;;;22.86;46.92;100190.72;10416525;28;20145;-66
2023/05/18 04:56:39;;;;;;;28.17;17.60;;;;;;;22.32;47.11;100139.94;10416261;28;20448;-68
2023/05/18 05:01:40;;;;;;;48.15;27.42;;;;;;;22.21;47.36;100195.00;10412703;28;20505;-64
2023/05/18 05:06:41;;;;;;;19.05;10.75;;;;;;;21.77;47.59;100189.41;10415017;28;20041;-64
2023/05/18 05:11:41;;;;;;;11.45;7.38;;;;;;;21.46;48.32;100190.78;10414850;28;20049;-66
2023/05/18 05:16:42;;;;;;;12.27;6.72;;;;;;;21.13;48.57;100195.03;10439597;28;20045;-68
2023/05/18 05:21:43;;;;;;;17.05;6.57;;;;;;;21.06;49.07;100197.03;10416302;28;20047;-68
2023/05/18 05:26:44;;;;;;;8.98;7.13;;;;;;;21.03;50.27;100194.81;10415424;28;20073;-67
2023/05/18 05:31:45;;;;;;;11.88;7.85;;;;;;;20.76;49.61;100141.41;10414848;28;20039;-67
2023/05/18 05:36:45;;;;;;;20.77;10.77;;;;;;;21.13;49.74;100192.31;10440063;28;20091;-67
2023/05/18 05:41:46;;;;;;;12.98;8.10;;;;;;;21.29;49.51;100188.81;10415264;28;20559;-67
2023/05/18 05:46:47;;;;;;;11.02;7.75;;;;;;;21.53;49.04;100161.72;10414235;28;20065;-67
2023/05/18 05:51:48;;;;;;;9.48;7.28;;;;;;;21.70;49.48;100169.84;10414070;28;20072;-67
2023/05/18 05:56:48;;;;;;;10.85;6.82;;;;;;;21.98;50.51;100177.03;10412866;28;20041;-67
2023/05/18 06:01:49;;;;;;;12.10;7.13;;;;;;;21.85;50.53;100099.78;10414526;28;20042;-68
2023/05/18 06:06:50;;;;;;;13.02;8.43;;;;;;;22.67;49.49;100177.47;10412962;28;20119;-67
2023/05/18 06:11:51;;;;;;;13.70;8.32;;;;;;;22.85;48.21;100173.63;10414607;28;20045;-67
2023/05/18 06:16:52;;;;;;;14.43;8.13;;;;;;;23.11;48.17;100163.09;10414007;28;20045;-67
2023/05/18 06:21:53;;;;;;;14.88;9.40;;;;;;;22.89;48.47;100112.47;10414080;28;20042;-67
2023/05/18 06:26:54;;;;;;;12.40;9.02;;;;;;;23.38;47.57;100158.50;10414091;28;20096;-67
2023/05/18 06:31:55;;;;;;;22.00;9.43;;;;;;;23.78;47.34;100142.84;10414004;28;20085;-68
2023/05/18 06:36:57;;;;;;;16.37;10.40;;;;;;;24.05;46.53;100148.16;10412767;28;20271;-67
2023/05/18 06:41:58;;;;;;;13.88;9.32;;;;;;;24.03;46.96;100140.31;10414364;28;20099;-68
2023/05/18 06:46:59;;;;;;;17.20;9.95;;;;;;;23.94;45.96;100141.06;10414230;28;20037;-67
2023/05/18 06:52:00;;;;;;;13.32;9.75;;;;;;;23.82;45.77;100082.41;10413512;28;20505;-67
2023/05/18 06:57:02;;;;;;;16.13;10.30;;;;;;;24.41;43.11;100138.34;10428034;28;20041;-68
2023/05/18 07:02:03;;;;;;;14.15;10.07;;;;;;;24.40;44.17;100095.97;10438127;28;20040;-69
2023/05/18 07:07:04;;;;;;;15.82;10.82;;;;;;;24.89;43.57;100135.53;10448064;28;20041;-67
2023/05/18 07:12:05;;;;;;;14.98;10.10;;;;;;;25.35;43.31;100150.06;10452346;28;20044;-67
2023/05/18 07:17:06;;;;;;;13.55;9.55;;;;;;;25.43;42.40;100140.56;10452788;28;20041;-67
2023/05/18 07:22:07;;;;;;;18.42;9.38;;;;;;;25.30;41.05;100135.66;10459891;28;20079;-67
2023/05/18 07:27:08;;;;;;;15.57;10.32;;;;;;;25.15;40.21;100128.28;10459825;28;20463;-67
2023/05/18 07:32:09;;;;;;;15.98;9.48;;;;;;;25.04;40.15;100122.81;10462110;28;20090;-67
2023/05/18 07:37:10;;;;;;;15.15;9.48;;;;;;;24.60;41.19;100117.00;10461119;28;20080;-67
2023/05/18 07:42:11;;;;;;;14.65;9.75;;;;;;;24.94;38.89;100098.31;10461162;28;20041;-68
2023/05/18 07:47:12;;;;;;;13.40;10.05;;;;;;;25.20;37.19;100065.78;10460197;28;20087;-68
2023/05/18 07:52:12;;;;;;;16.63;11.10;;;;;;;25.84;35.70;100103.28;10460915;28;20044;-67
2023/05/18 07:57:13;;;;;;;14.10;10.80;;;;;;;25.81;34.02;100054.00;10456926;28;20052;-68
2023/05/18 08:02:16;;;;;;;17.83;10.63;;;;;;;26.01;34.19;100034.13;10460350;28;20127;-68
2023/05/18 08:07:17;;;;;;;29.27;10.80;;;;;;;26.35;34.45;100092.22;10460091;28;20041;-68
2023/05/18 08:12:18;;;;;;;13.75;10.30;;;;;;;26.49;34.23;100088.91;10460677;28;20040;-67
2023/05/18 08:17:18;;;;;;;14.98;10.52;;;;;;;26.83;32.31;100091.72;10458694;28;20048;-68
2023/05/18 08:22:20;;;;;;;18.35;11.13;;;;;;;26.34;32.69;100019.78;10459631;28;20048;-68
2023/05/18 08:27:20;;;;;;;334.25;195.35;;;;;;;26.84;32.75;100077.84;10459213;28;20053;-68
2023/05/18 08:32:21;;;;;;;47.92;29.20;;;;;;;26.64;31.95;100034.38;10458616;28;20033;-66
2023/05/18 08:37:27;;;;;;;24.23;15.65;;;;;;;26.91;32.21;100082.16;10457942;28;20478;-68
2023/05/18 08:42:33;;;;;;;17.73;10.65;;;;;;;26.21;31.39;99971.41;10458150;28;20550;-66
2023/05/18 08:47:36;;;;;;;17.77;10.35;;;;;;;25.87;31.99;100018.34;10442532;28;20045;-67
2023/05/18 08:52:45;;;;;;;18.52;9.88;;;;;;;25.68;32.19;100067.09;10443837;28;20037;-67
2023/05/18 08:57:54;;;;;;;15.00;9.98;;;;;;;25.18;33.31;100057.88;10426703;28;20041;-67
2023/05/18 09:02:55;;;;;;;14.90;9.75;;;;;;;24.43;33.98;99980.63;10416444;28;20053;-68
2023/05/18 09:07:56;;;;;;;20.67;10.05;;;;;;;24.47;34.59;100004.28;10415977;28;20038;-67
2023/05/18 09:12:59;;;;;;;19.27;9.25;;;;;;;24.82;34.30;100038.81;10413044;28;20064;-66
2023/05/18 09:17:59;;;;;;;16.80;9.30;;;;;;;25.62;33.14;100053.78;10415029;28;20103;-67
2023/05/18 09:23:00;;;;;;;20.02;9.77;;;;;;;26.06;32.62;100047.72;10415739;28;20045;-68
2023/05/18 09:28:03;;;;;;;12.27;8.85;;;;;;;25.48;32.06;100035.28;10416198;28;20140;-67
2023/05/18 09:33:04;;;;;;;20.73;8.68;;;;;;;25.22;32.33;99982.06;10415498;28;20080;-67
2023/05/18 09:38:05;;;;;;;13.38;9.13;;;;;;;25.96;31.05;100030.31;10414322;28;20472;-67
2023/05/18 09:43:06;;;;;;;15.48;8.73;;;;;;;26.59;31.70;100027.06;10413675;28;20044;-67
2023/05/18 09:48:08;;;;;;;25.25;15.18;;;;;;;26.72;32.38;100019.34;10415472;28;20052;-68
2023/05/18 09:53:10;;;;;;;15.57;9.65;;;;;;;26.99;30.87;100002.50;10414089;28;20124;-67
2023/05/18 09:58:11;;;;;;;16.75;9.18;;;;;;;26.72;30.65;100006.53;10414284;28;20060;-68
2023/05/18 10:03:16;;;;;;;16.50;8.65;;;;;;;26.61;30.02;100034.94;10413414;28;20052;-65
2023/05/18 10:08:17;;;;;;;15.82;8.43;;;;;;;26.88;29.92;100012.66;10413518;28;20107;-67
2023/05/18 10:13:19;;;;;;;17.50;7.93;;;;;;;26.70;29.26;99946.03;10414401;28;20037;-66
2023/05/18 10:18:22;;;;;;;20.95;7.28;;;;;;;26.61;30.02;99885.09;10413679;28;20195;-66
2023/05/18 10:23:25;;;;;;;15.32;8.32;;;;;;;27.51;29.46;100014.59;10413648;28;20040;-66
2023/05/18 10:28:32;;;;;;;16.55;8.85;;;;;;;27.45;29.00;99986.53;10413737;28;20063;-66
2023/05/18 10:33:35;;;;;;;11.57;7.43;;;;;;;27.68;29.29;100004.03;10412757;28;20503;-67
2023/05/18 10:38:42;;;;;;;14.77;7.78;;;;;;;27.54;29.19;99997.66;10423578;28;20056;-67
2023/05/18 10:43:44;;;;;;;11.90;7.75;;;;;;;27.07;28.87;99999.16;10422097;28;20045;-67
2023/05/18 10:48:50;;;;;;;14.55;7.18;;;;;;;26.89;29.16;99991.69;10416930;28;20037;-67
2023/05/18 10:53:53;;;;;;;13.82;7.07;;;;;;;26.47;29.47;99966.59;10413750;28;20163;-65
2023/05/18 10:58:54;;;;;;;17.15;7.40;;;;;;;26.58;29.23;99987.28;10421033;28;20041;-66
2023/05/18 11:03:55;;;;;;;18.35;7.43;;;;;;;26.04;29.85;99925.50;10421865;28;20037;-66
2023/05/18 11:08:57;;;;;;;12.32;7.20;;;;;;;26.04;30.01;99977.22;10439067;28;20045;-66
2023/05/18 11:14:02;;;;;;;19.65;7.28;;;;;;;26.04;29.71;99990.00;10420331;28;20046;-66
2023/05/18 11:19:08;;;;;;;12.98;7.13;;;;;;;26.61;29.61;99991.34;10416644;28;20081;-67
2023/05/18 11:24:20;;;;;;;12.88;7.35;;;;;;;26.66;29.33;99983.16;10419898;28;20493;-67
2023/05/18 11:29:34;;;;;;;14.48;6.82;;;;;;;26.62;28.94;99984.78;10419988;28;20065;-66
2023/05/18 11:34:52;;;;;;;9.93;6.68;;;;;;;26.75;28.58;99970.53;10419622;28;20037;-67
2023/05/18 11:39:54;;;;;;;13.25;7.00;;;;;;;26.82;29.47;99970.22;10419548;28;20095;-66
2023/05/18 11:44:55;;;;;;;14.80;7.57;;;;;;;27.14;29.68;99968.84;10432800;28;20173;-67
2023/05/18 11:49:57;;;;;;;12.30;7.13;;;;;;;27.22;29.31;99905.50;10418889;28;20533;-67
2023/05/18 11:54:59;;;;;;;14.40;7.63;;;;;;;27.53;29.27;99901.34;10419454;28;20489;-67
2023/05/18 12:00:06;;;;;;;13.85;7.82;;;;;;;27.35;28.88;99885.75;10418202;28;20049;-67
2023/05/18 12:05:08;;;;;;;13.07;7.47;;;;;;;26.93;28.74;99910.97;10418380;28;20072;-66
2023/05/18 12:10:11;;;;;;;17.85;8.68;;;;;;;26.38;29.89;99913.84;10418551;28;20235;-65
2023/05/18 12:15:12;;;;;;;;;;;;;;;26.53;29.97;99961.97;10418021;28;20048;-67
2023/05/18 12:20:18;;;;;;;12.52;6.90;;;;;;;26.10;30.44;99964.41;10418183;28;19920;-66
2023/05/18 12:25:23;;;;;;;14.75;7.78;;;;;;;25.82;30.20;99892.44;10417909;28;20103;-67
2023/05/18 12:30:36;;;;;;;12.90;7.43;;;;;;;26.53;29.76;99935.53;10417992;28;20041;-67
2023/05/18 12:35:36;;;;;;;14.07;7.17;;;;;;;27.04;29.74;99951.50;10430328;28;20091;-67
2023/05/18 12:40:47;;;;;;;10.95;7.28;;;;;;;27.21;29.06;99947.53;10421846;28;20098;-67
2023/05/18 12:45:48;;;;;;;11.57;6.93;;;;;;;27.54;29.16;99952.06;10424329;28;20488;-67
2023/05/18 12:50:50;;;;;;;14.90;7.65;;;;;;;27.66;28.67;99946.22;10456537;28;20396;-68
2023/05/18 12:55:58;;;;;;;13.52;6.65;;;;;;;27.82;29.30;99970.59;10454433;28;20044;-67
2023/05/18 13:01:06;;;;;;;9.77;6.30;;;;;;;27.52;28.36;99969.81;10414842;28;20036;-68
2023/05/18 13:06:10;;;;;;;23.73;6.85;;;;;;;26.99;28.96;99937.09;10416077;28;20049;-67
2023/05/18 13:11:14;;;;;;;11.00;6.65;;;;;;;26.69;28.99;99947.16;10417273;28;20045;-68
2023/05/18 13:16:16;;;;;;;13.63;6.28;;;;;;;26.49;29.08;99918.16;10414967;28;20041;-68
2023/05/18 13:21:17;;;;;;;14.02;5.93;;;;;;;26.24;29.01;99915.59;10415225;28;20037;-67
2023/05/18 13:26:23;;;;;;;12.98;6.03;;;;;;;26.75;28.71;99970.53;10425564;28;20061;-68
2023/05/18 13:31:24;;;;;;;12.85;6.50;;;;;;;26.36;29.20;99897.78;10438865;28;20033;-68
2023/05/18 13:36:28;;;;;;;16.73;6.13;;;;;;;26.34;29.59;99984.41;10435381;28;20037;-68
2023/05/18 13:41:29;;;;;;;13.88;6.22;;;;;;;25.55;30.04;99915.34;10435136;28;20033;-68
2023/05/18 13:46:30;;;;;;;10.13;5.95;;;;;;;25.48;30.18;99951.00;10434722;28;20033;-67
2023/05/18 13:51:31;;;;;;;19.25;6.82;;;;;;;25.52;30.44;99951.28;10433105;28;20041;-67
2023/05/18 13:56:31;;;;;;;8.95;5.90;;;;;;;25.55;30.25;99958.03;10435660;28;20048;-68
2023/05/18 14:01:33;;;;;;;12.02;5.65;;;;;;;25.42;30.25;99910.50;10430065;28;20033;-67
2023/05/18 14:06:34;;;;;;;14.02;6.20;;;;;;;25.80;30.23;99977.00;10430325;28;20033;-69
2023/05/18 14:11:37;;;;;;;9.10;5.95;;;;;;;25.47;30.60;99973.84;10430999;28;20041;-66
2023/05/18 14:16:38;;;;;;;11.93;6.05;;;;;;;24.92;30.90;99945.63;10413180;28;20045;-67
2023/05/18 14:21:38;;;;;;;15.98;6.25;;;;;;;24.73;31.96;99977.13;10413842;28;20496;-66
2023/05/18 14:26:40;;;;;;;13.88;6.47;;;;;;;24.52;32.57;99981.72;10452153;28;20085;-66
2023/05/18 14:31:41;;;;;;;20.38;8.27;;;;;;;23.99;32.58;99915.88;10453891;28;20060;-66
2023/05/18 14:36:42;;;;;;;27.38;9.13;;;;;;;24.25;32.89;99961.00;10453547;28;20182;-66
2023/05/18 14:41:42;;;;;;;13.88;7.63;;;;;;;24.59;32.41;99980.41;10455076;28;20489;-66
2023/05/18 14:46:43;;;;;;;16.10;5.82;;;;;;;24.38;32.93;99973.28;10453617;28;20044;-68
2023/05/18 14:51:44;;;;;;;14.52;7.18;;;;;;;23.59;33.45;99901.09;10452198;28;20037;-66
2023/05/18 14:56:45;;;;;;;12.65;6.30;;;;;;;23.37;33.21;99906.69;10453636;28;20099;-66
2023/05/18 15:01:46;;;;;;;16.70;6.45;;;;;;;23.41;33.75;99943.81;10454211;28;20044;-67
2023/05/18 15:06:48;;;;;;;17.15;7.25;;;;;;;23.71;34.31;100014.78;10443894;28;20124;-66
2023/05/18 15:11:50;;;;;;;20.33;7.95;;;;;;;23.69;34.76;100013.16;10419073;28;20508;-67
2023/05/18 15:16:52;;;;;;;97.88;43.45;;;;;;;23.30;34.84;99949.44;10436575;28;20044;-68
2023/05/18 15:21:52;;;;;;;27.35;13.98;;;;;;;23.74;35.07;100006.13;10429673;28;20049;-66
2023/05/18 15:26:53;;;;;;;16.75;9.25;;;;;;;23.63;35.13;100008.75;10453769;28;20140;-67
2023/05/18 15:31:54;;;;;;;12.57;7.18;;;;;;;23.53;35.40;100007.88;10452864;28;20037;-66
2023/05/18 15:36:55;;;;;;;16.70;8.73;;;;;;;23.16;35.90;99978.91;10454231;28;20408;-66
2023/05/18 15:41:56;;;;;;;15.38;7.32;;;;;;;23.16;36.17;100011.44;10457361;28;20077;-67
2023/05/18 15:46:57;;;;;;;13.38;7.90;;;;;;;22.98;36.70;100013.44;10454159;28;20087;-69
2023/05/18 15:51:58;;;;;;;11.02;6.72;;;;;;;22.61;37.74;99997.09;10437968;28;20049;-67
2023/05/18 15:57:00;;;;;;;13.45;7.00;;;;;;;22.44;38.36;100013.44;10442458;28;20041;-68
2023/05/18 16:02:01;;;;;;;27.10;7.85;;;;;;;21.88;38.74;99958.66;10447573;28;20052;-67
2023/05/18 16:07:02;;;;;;;9.68;6.22;;;;;;;21.16;39.00;99875.81;10447484;28;20047;-67
2023/05/18 16:12:03;;;;;;;12.43;6.10;;;;;;;21.85;39.45;100019.47;10446641;28;20155;-67
2023/05/18 16:17:04;;;;;;;15.93;6.93;;;;;;;21.48;40.02;99989.50;10440802;28;20124;-67
2023/05/18 16:22:07;;;;;;;20.60;7.45;;;;;;;21.52;40.24;100024.94;10446770;28;20033;-66
2023/05/18 16:27:08;;;;;;;27.63;12.10;;;;;;;20.86;41.10;99951.78;10446688;28;20095;-67
2023/05/18 16:32:09;;;;;;;36.70;15.05;;;;;;;21.02;42.32;100021.16;10446613;28;20033;-67
2023/05/18 16:37:10;;;;;;;35.50;14.50;;;;;;;20.69;44.32;100016.53;10438189;28;20037;-67
2023/05/18 16:42:11;;;;;;;33.42;13.98;;;;;;;20.30;45.68;100035.19;10440866;28;20523;-67
2023/05/18 16:47:12;;;;;;;29.08;13.77;;;;;;;19.66;46.57;99993.97;10447035;28;20044;-67
2023/05/18 16:52:14;;;;;;;40.72;13.40;;;;;;;19.60;47.78;100041.50;10436363;28;20124;-67
2023/05/18 16:57:16;;;;;;;39.85;13.05;;;;;;;19.28;49.32;100041.00;10437058;28;20095;-66
2023/05/18 17:02:16;;;;;;;39.45;12.82;;;;;;;18.50;50.94;99970.13;10440754;28;20041;-67
2023/05/18 17:07:17;;;;;;;31.85;12.52;;;;;;;18.30;52.20;99980.34;10434212;28;20559;-67
2023/05/18 17:12:18;;;;;;;53.55;12.82;;;;;;;18.47;53.81;100059.34;10438111;28;20128;-67
2023/05/18 17:17:19;;;;;;;33.38;11.82;;;;;;;18.12;54.32;100035.78;10439685;28;20473;-66
2023/05/18 17:22:20;;;;;;;43.53;16.98;;;;;;;18.07;55.65;100050.94;10438271;28;20041;-66
2023/05/18 17:27:21;;;;;;;58.08;16.65;;;;;;;16.65;55.90;99867.22;10436698;28;20521;-66
2023/05/18 17:32:21;;;;;;;33.08;12.45;;;;;;;17.74;56.59;100054.78;10447801;28;20044;-68
2023/05/18 17:37:22;;;;;;;37.20;11.48;;;;;;;17.48;57.04;100061.22;10443784;28;20040;-67
2023/05/18 17:42:23;;;;;;;64.05;14.30;;;;;;;17.19;58.54;100060.81;10438750;28;20044;-66
2023/05/18 17:47:24;;;;;;;42.22;12.27;;;;;;;16.93;59.14;100042.22;10431961;28;20493;-67
2023/05/18 17:52:25;;;;;;;32.60;11.55;;;;;;;16.97;60.75;100060.38;10448687;28;20099;-67
2023/05/18 17:57:26;;;;;;;20.52;9.82;;;;;;;16.81;60.72;100059.03;10456083;28;20037;-67
2023/05/18 18:02:27;;;;;;;26.75;10.43;;;;;;;16.46;62.05;100041.66;10455263;28;20087;-67
2023/05/18 18:07:28;;;;;;;24.60;11.32;;;;;;;16.36;62.79;100053.66;10425984;28;20107;-67
2023/05/18 18:12:29;;;;;;;27.20;10.38;;;;;;;16.33;62.73;100054.09;10414079;28;20052;-67
2023/05/18 18:17:30;;;;;;;28.13;11.15;;;;;;;16.19;63.74;100042.59;10414360;28;20501;-67
2023/05/18 18:22:30;;;;;;;21.33;11.15;;;;;;;15.64;64.08;99963.59;10414452;28;20132;-67
2023/05/18 18:27:31;;;;;;;26.27;10.65;;;;;;;16.12;64.37;100041.81;10422285;28;20084;-67
2023/05/18 18:32:32;;;;;;;26.23;10.98;;;;;;;16.15;64.58;100041.38;10431999;28;20500;-67
2023/05/18 18:37:33;;;;;;;18.08;10.63;;;;;;;16.20;64.67;100046.91;10448206;28;20095;-67
2023/05/18 18:42:34;;;;;;;23.70;10.82;;;;;;;16.13;64.70;100045.31;10442997;28;20424;-67
2023/05/18 18:47:35;;;;;;;26.33;12.82;;;;;;;15.91;65.62;100013.44;10454401;28;20135;-67
2023/05/18 18:52:35;;;;;;;25.45;12.40;;;;;;;16.02;65.51;100040.59;10454795;28;20090;-67
2023/05/18 18:57:36;;;;;;;21.20;11.95;;;;;;;15.61;65.78;99969.38;10454612;28;20099;-69
2023/05/18 19:02:38;;;;;;;23.05;12.55;;;;;;;15.85;66.57;100024.97;10453604;28;20091;-68
2023/05/18 19:07:39;;;;;;;31.27;12.30;;;;;;;15.89;66.61;100026.22;10453833;28;20053;-67
2023/05/18 19:12:42;;;;;;;23.88;12.30;;;;;;;15.98;66.91;100034.84;10453284;28;20060;-67
2023/05/18 19:17:50;;;;;;;32.83;13.07;;;;;;;15.93;66.87;100026.59;10458982;28;20420;-67
2023/05/18 19:22:54;;;;;;;28.88;14.52;;;;;;;15.98;67.18;100024.94;10447385;28;20033;-66
2023/05/18 19:27:55;;;;;;;28.38;15.02;;;;;;;15.79;67.81;100001.69;10461799;28;20102;-67
2023/05/18 19:32:56;;;;;;;30.83;14.50;;;;;;;15.41;67.96;99950.72;10460432;28;20202;-67
2023/05/18 19:37:57;;;;;;;23.58;12.35;;;;;;;15.70;68.79;100022.56;10423858;28;20700;-67
2023/05/18 19:42:58;;;;;;;38.63;17.33;;;;;;;15.27;70.02;99995.38;10419503;28;20037;-66
2023/05/18 19:47:59;;;;;;;67.95;34.20;;;;;;;15.28;70.92;100018.44;10420334;28;20079;-67
2023/05/18 19:53:00;;;;;;;55.88;28.17;;;;;;;14.81;71.27;99953.44;10418733;28;20124;-67
2023/05/18 19:58:01;;;;;;;61.85;30.60;;;;;;;14.49;72.01;99926.41;10418893;28;20037;-67
2023/05/18 20:03:02;;;;;;;66.80;30.08;;;;;;;14.78;72.22;99980.59;10418772;28;20049;-67
2023/05/18 20:08:03;;;;;;;78.45;35.60;;;;;;;14.88;72.80;100013.09;10419499;28;20550;-67
2023/05/18 20:13:04;;;;;;;79.68;35.72;;;;;;;14.75;73.10;100013.06;10417061;28;20041;-67
2023/05/18 20:18:05;;;;;;;78.55;33.13;;;;;;;14.58;73.72;100001.94;10416708;28;20041;-66
2023/05/18 20:23:09;;;;;;;61.63;29.95;;;;;;;14.53;73.67;100010.53;10419073;28;20041;-66
2023/05/18 20:28:10;;;;;;;54.57;27.53;;;;;;;14.31;73.70;100003.69;10417441;28;20053;-67
2023/05/18 20:33:11;;;;;;;36.28;21.17;;;;;;;14.21;74.54;100020.09;10418661;28;20288;-67
2023/05/18 20:38:12;;;;;;;40.92;20.85;;;;;;;14.21;75.16;100017.41;10417880;28;20136;-67
2023/05/18 20:43:16;;;;;;;36.13;19.48;;;;;;;13.70;75.37;99943.03;10417660;28;20144;-67
2023/05/18 20:48:23;;;;;;;35.22;20.35;;;;;;;13.95;75.92;100018.13;10417483;28;20551;-67
2023/05/18 20:53:25;;;;;;;39.78;17.83;;;;;;;13.87;76.33;100013.75;10417086;28;20562;-67
2023/05/18 20:58:26;;;;;;;29.52;15.95;;;;;;;13.70;77.02;100018.59;10417314;28;20047;-66
2023/05/18 21:03:29;;;;;;;22.98;13.15;;;;;;;13.15;77.26;99953.53;10416785;28;20038;-67
2023/05/18 21:08:29;;;;;;;20.02;11.57;;;;;;;13.44;77.64;100010.44;10415971;28;20481;-67
2023/05/18 21:13:30;;;;;;;19.92;11.18;;;;;;;13.08;78.19;99962.53;10416317;28;20038;-67
2023/05/18 21:18:33;;;;;;;15.65;10.15;;;;;;;13.36;78.51;100022.06;10416734;28;20143;-67
2023/05/18 21:23:34;;;;;;;17.85;11.75;;;;;;;13.23;79.08;100025.41;10415516;28;20138;-67
2023/05/18 21:28:35;;;;;;;35.80;11.57;;;;;;;12.93;79.83;99970.63;10416337;28;20069;-67
2023/05/18 21:33:35;;;;;;;20.58;11.90;;;;;;;13.19;79.98;100005.50;10415023;28;20522;-67
2023/05/18 21:38:36;;;;;;;17.45;10.45;;;;;;;13.11;80.22;99994.13;10415281;28;20041;-67
2023/05/18 21:43:37;;;;;;;17.10;10.30;;;;;;;13.07;80.81;99999.00;10415773;28;20052;-67
2023/05/18 21:48:38;;;;;;;18.90;10.18;;;;;;;13.13;80.69;100005.41;10415129;28;20037;-67
2023/05/18 21:53:38;;;;;;;15.50;11.05;;;;;;;13.11;80.83;100005.63;10414320;28;20508;-67
2023/05/18 21:58:39;;;;;;;20.35;10.60;;;;;;;12.59;81.42;99932.16;10414698;28;20140;-67
2023/05/18 22:03:40;;;;;;;28.00;11.07;;;;;;;12.92;81.46;100004.44;10415412;28;20037;-67
2023/05/18 22:08:41;;;;;;;14.93;9.93;;;;;;;12.79;81.57;99978.47;10413725;28;20048;-67
2023/05/18 22:13:41;;;;;;;15.10;9.70;;;;;;;12.17;81.87;99896.50;10414766;28;20147;-67
2023/05/18 22:18:42;;;;;;;15.48;10.20;;;;;;;12.72;82.68;99996.25;10412120;28;20057;-67
2023/05/18 22:23:43;;;;;;;20.95;10.63;;;;;;;12.67;83.35;99985.34;10414637;28;20041;-67
2023/05/18 22:28:44;;;;;;;17.33;10.75;;;;;;;12.21;83.43;99908.44;10413827;28;20056;-67
2023/05/18 22:33:44;;;;;;;14.50;10.20;;;;;;;12.18;83.22;99916.81;10413050;28;20037;-67
2023/05/18 22:38:48;;;;;;;22.63;9.98;;;;;;;12.47;83.48;99976.31;10413321;28;20056;-66
2023/05/18 22:43:48;;;;;;;13.73;10.15;;;;;;;12.45;83.23;99999.69;10415028;28;20037;-67
2023/05/18 22:48:49;;;;;;;15.77;9.93;;;;;;;12.44;83.50;99998.00;10413220;28;20413;-67
2023/05/18 22:53:50;;;;;;;19.58;9.90;;;;;;;12.06;83.14;99928.97;10411945;28;20417;-67
2023/05/18 22:58:51;;;;;;;19.30;9.82;;;;;;;12.32;83.62;99995.84;10413023;28;20133;-67